Time;durP1;ratioP1;P1;durP2;ratioP2;P2;SDS_P1;SDS_P2;PMS_P1;PMS_P2;Temp;Humidity;BMP_temperature;BMP_pressure;BME280_temperature;BME280_humidity;BME280_pressure;Samples;Min_cycle;Max_cycle;Signal;HPM_P1;HPM_P2
2021/08/02 00:00:08;;;;;;;2.55;1.55;;;28.90;55.20;;;;;;5074121;28;20036;-79
2021/08/02 00:02:42;;;;;;;8.00;1.70;;;29.00;54.90;;;;;;5074489;28;20024;-80
2021/08/02 00:05:08;;;;;;;1.48;1.38;;;28.90;54.90;;;;;;5056179;28;20036;-80
2021/08/02 00:07:37;;;;;;;1.75;1.40;;;28.70;54.40;;;;;;5074694;28;20020;-80
2021/08/02 00:10:14;;;;;;;40.47;1.95;;;28.70;55.40;;;;;;5074544;28;20445;-77
2021/08/02 00:12:55;;;;;;;1.85;1.75;;;28.50;55.70;;;;;;5074329;28;20021;-81
2021/08/02 00:15:21;;;;;;;4.53;1.40;;;28.40;55.70;;;;;;5074220;28;20427;-80
2021/08/02 00:17:47;;;;;;;6.38;1.85;;;28.40;56.00;;;;;;5074220;28;20029;-79
2021/08/02 00:20:35;;;;;;;0.85;0.70;;;28.30;56.30;;;;;;5073688;28;20036;-79
2021/08/02 00:23:05;;;;;;;3.03;2.00;;;28.30;56.70;;;;;;5073345;28;20033;-80
2021/08/02 00:25:32;;;;;;;2.97;2.78;;;28.10;56.90;;;;;;5074047;28;20051;-81
2021/08/02 00:27:58;;;;;;;1.20;1.15;;;28.20;57.40;;;;;;5074237;28;20036;-78
2021/08/02 00:30:24;;;;;;;1.20;1.02;;;28.10;57.20;;;;;;5073646;28;20024;-80
2021/08/02 00:32:51;;;;;;;1.88;1.73;;;28.10;57.00;;;;;;5073706;28;20032;-79
2021/08/02 00:35:17;;;;;;;0.75;0.75;;;28.20;57.10;;;;;;5073881;28;20430;-80
2021/08/02 00:37:52;;;;;;;1.65;1.40;;;28.30;57.10;;;;;;5055657;28;20472;-79
2021/08/02 00:40:39;;;;;;;0.60;0.60;;;28.00;57.20;;;;;;5073803;28;20021;-80
2021/08/02 00:43:41;;;;;;;2.42;1.75;;;28.00;58.10;;;;;;5073298;28;20400;-80
2021/08/02 00:46:09;;;;;;;5.03;1.00;;;28.10;57.80;;;;;;5073621;28;20048;-79
2021/08/02 00:49:01;;;;;;;5.78;1.58;;;28.10;58.30;;;;;;5073393;28;20052;-80
2021/08/02 00:51:32;;;;;;;0.60;0.60;;;27.80;58.10;;;;;;5073747;28;20116;-79
2021/08/02 00:53:59;;;;;;;1.75;1.55;;;27.80;58.40;;;;;;5073224;28;20055;-79
2021/08/02 00:56:29;;;;;;;1.42;1.25;;;27.80;58.70;;;;;;5073750;28;20096;-79
2021/08/02 00:58:59;;;;;;;1.48;1.38;;;27.70;58.10;;;;;;5073183;28;20480;-79
2021/08/02 01:01:26;;;;;;;3.60;3.30;;;27.90;56.90;;;;;;5073418;28;20028;-78
2021/08/02 01:03:53;;;;;;;1.77;1.63;;;28.00;57.20;;;;;;5073501;28;20029;-80
2021/08/02 01:06:20;;;;;;;7.43;2.25;;;27.90;57.70;;;;;;5073197;28;20028;-80
2021/08/02 01:08:48;;;;;;;2.90;2.05;;;27.50;58.50;;;;;;5073014;28;20050;-79
2021/08/02 01:11:16;;;;;;;1.13;1.08;;;27.50;58.40;;;;;;5073095;28;20423;-79
2021/08/02 01:13:43;;;;;;;2.38;2.15;;;27.60;58.20;;;;;;5072936;28;20028;-80
2021/08/02 01:16:10;;;;;;;0.93;0.93;;;27.50;58.30;;;;;;5073264;28;20029;-80
2021/08/02 01:18:37;;;;;;;0.98;0.98;;;27.70;58.10;;;;;;5073270;28;20044;-79
2021/08/02 01:21:08;;;;;;;1.15;1.05;;;27.50;58.40;;;;;;5072759;28;20028;-79
2021/08/02 01:23:50;;;;;;;0.57;0.57;;;27.50;58.40;;;;;;5072958;28;20103;-79
2021/08/02 01:26:44;;;;;;;2.03;1.40;;;27.60;58.30;;;;;;5073400;28;20391;-80
2021/08/02 01:29:47;;;;;;;1.02;0.98;;;27.50;58.40;;;;;;5072784;28;20100;-78
2021/08/02 01:32:15;;;;;;;1.27;1.17;;;27.40;58.70;;;;;;5071838;28;20032;-81
2021/08/02 01:34:41;;;;;;;1.50;1.40;;;27.30;59.40;;;;;;5072311;28;20033;-79
2021/08/02 01:37:07;;;;;;;1.33;1.23;;;27.30;59.50;;;;;;5072935;28;20036;-80
2021/08/02 01:39:34;;;;;;;1.48;1.05;;;27.10;58.80;;;;;;5072375;28;20032;-78
2021/08/02 01:42:03;;;;;;;1.55;1.45;;;26.30;60.00;;;;;;5072338;28;20017;-79
2021/08/02 01:44:29;;;;;;;0.70;0.70;;;26.00;60.00;;;;;;5072432;28;20029;-79
2021/08/02 01:47:17;;;;;;;5.32;3.33;;;26.60;59.30;;;;;;5055108;28;20392;-80
2021/08/02 01:49:52;;;;;;;0.77;0.77;;;26.50;57.00;;;;;;5071963;28;20055;-79
2021/08/02 01:52:35;;;;;;;3.10;2.85;;;26.40;58.50;;;;;;5072613;28;20035;-80
2021/08/02 01:55:09;;;;;;;0.75;0.75;;;26.30;59.60;;;;;;5072286;28;20029;-80
2021/08/02 01:57:54;;;;;;;2.65;2.25;;;25.80;60.90;;;;;;5072003;28;20059;-80
2021/08/02 02:00:21;;;;;;;0.60;0.60;;;26.10;61.10;;;;;;5072110;28;20035;-79
2021/08/02 02:03:07;;;;;;;0.60;0.60;;;25.70;61.70;;;;;;5072304;28;20148;-79
2021/08/02 02:05:36;;;;;;;2.42;1.85;;;26.20;60.90;;;;;;5071701;28;20039;-80
2021/08/02 02:08:19;;;;;;;1.50;1.13;;;26.80;59.70;;;;;;5071879;28;20021;-80
2021/08/02 02:10:51;;;;;;;1.70;1.60;;;27.00;59.10;;;;;;5054148;28;20128;-79
2021/08/02 02:13:21;;;;;;;2.47;2.28;;;27.20;57.90;;;;;;5071962;28;20072;-79
2021/08/02 02:15:53;;;;;;;1.25;1.15;;;27.20;57.70;;;;;;5072144;28;20048;-78
2021/08/02 02:18:21;;;;;;;3.78;2.30;;;26.50;59.00;;;;;;5071946;28;20028;-78
2021/08/02 02:20:49;;;;;;;1.83;1.25;;;26.70;59.00;;;;;;5071993;28;20032;-79
2021/08/02 02:23:15;;;;;;;5.55;2.85;;;27.10;57.90;;;;;;5072040;28;20056;-78
2021/08/02 02:25:42;;;;;;;0.52;0.52;;;26.80;58.30;;;;;;5072023;28;20029;-80
2021/08/02 02:28:10;;;;;;;1.02;0.98;;;26.30;59.30;;;;;;5071794;28;20020;-80
2021/08/02 02:30:36;;;;;;;1.67;1.23;;;25.80;59.90;;;;;;5071949;28;20103;-80
2021/08/02 02:33:04;;;;;;;3.92;3.58;;;25.70;59.80;;;;;;5071911;28;20024;-79
2021/08/02 02:35:31;;;;;;;2.85;1.48;;;25.90;60.30;;;;;;5071439;28;20361;-79
2021/08/02 02:37:58;;;;;;;4.45;2.50;;;26.50;59.40;;;;;;5071859;28;20051;-78
2021/08/02 02:40:24;;;;;;;1.30;0.93;;;26.70;59.00;;;;;;5071832;28;20070;-81
2021/08/02 02:42:50;;;;;;;1.42;1.23;;;26.80;59.10;;;;;;5071675;28;20436;-78
2021/08/02 02:45:16;;;;;;;3.55;2.85;;;26.40;58.90;;;;;;5071264;28;20420;-79
2021/08/02 02:47:44;;;;;;;1.00;0.93;;;25.80;60.50;;;;;;5071713;28;20025;-79
2021/08/02 02:50:11;;;;;;;0.80;0.80;;;25.80;60.80;;;;;;5071584;28;20045;-78
2021/08/02 02:52:37;;;;;;;1.10;1.05;;;26.40;59.90;;;;;;5071322;28;20028;-78
2021/08/02 02:55:05;;;;;;;2.92;1.67;;;26.60;58.80;;;;;;5071528;28;20407;-79
2021/08/02 02:57:31;;;;;;;1.88;1.70;;;26.80;57.90;;;;;;5053870;28;20111;-79
2021/08/02 02:59:57;;;;;;;0.60;0.60;;;26.90;57.20;;;;;;5071301;28;20163;-80
2021/08/02 03:02:25;;;;;;;0.77;0.77;;;26.90;57.30;;;;;;5071782;28;20036;-78
2021/08/02 03:04:55;;;;;;;0.55;0.55;;;27.00;57.40;;;;;;5071328;28;20111;-79
2021/08/02 03:07:22;;;;;;;2.15;1.65;;;26.30;58.20;;;;;;5071394;28;20421;-79
2021/08/02 03:09:49;;;;;;;1.48;1.38;;;26.10;59.40;;;;;;5071591;28;20027;-78
2021/08/02 03:12:15;;;;;;;2.22;1.90;;;26.50;59.30;;;;;;5071317;28;20499;-80
2021/08/02 03:14:41;;;;;;;1.08;1.02;;;26.80;59.00;;;;;;5070775;28;20064;-78
2021/08/02 03:17:10;;;;;;;2.17;1.45;;;26.70;58.00;;;;;;5071008;28;20104;-79
2021/08/02 03:19:37;;;;;;;1.00;1.00;;;26.20;59.20;;;;;;5071138;28;20124;-79
2021/08/02 03:22:14;;;;;;;4.53;2.38;;;26.30;59.50;;;;;;5070898;28;20099;-80
2021/08/02 03:24:45;;;;;;;1.30;1.10;;;26.40;59.20;;;;;;5071041;28;20025;-80
2021/08/02 03:27:25;;;;;;;4.38;1.77;;;26.60;59.10;;;;;;5070875;28;20029;-80
2021/08/02 03:29:53;;;;;;;3.47;0.93;;;26.50;59.10;;;;;;5071330;28;20436;-78
2021/08/02 03:32:22;;;;;;;0.70;0.70;;;26.60;59.60;;;;;;5071130;28;20032;-79
2021/08/02 03:34:55;;;;;;;0.70;0.70;;;26.50;59.70;;;;;;5071222;28;20360;-79
2021/08/02 03:37:23;;;;;;;1.55;1.45;;;26.30;60.00;;;;;;5070919;28;20024;-78
2021/08/02 03:39:51;;;;;;;0.90;0.90;;;26.50;59.80;;;;;;5070801;28;20029;-81
2021/08/02 03:42:18;;;;;;;0.95;0.93;;;26.30;59.50;;;;;;5071190;28;20020;-79
2021/08/02 03:44:47;;;;;;;2.75;1.75;;;26.40;60.30;;;;;;5071115;28;20020;-80
2021/08/02 03:47:13;;;;;;;2.20;1.38;;;26.10;60.40;;;;;;5070831;28;20530;-80
2021/08/02 03:49:40;;;;;;;1.08;1.00;;;26.40;60.30;;;;;;5053027;28;20060;-79
2021/08/02 03:52:06;;;;;;;0.60;0.60;;;26.50;60.30;;;;;;5071210;28;20476;-79
2021/08/02 03:54:32;;;;;;;0.80;0.80;;;26.60;60.20;;;;;;5070669;28;20024;-79
2021/08/02 03:57:00;;;;;;;1.13;1.05;;;26.50;60.00;;;;;;5074006;28;20369;-79
2021/08/02 03:59:27;;;;;;;0.70;0.70;;;26.50;61.40;;;;;;5074435;28;20391;-79
2021/08/02 04:01:53;;;;;;;1.58;1.48;;;26.40;62.00;;;;;;5056556;28;20074;-79
2021/08/02 04:04:19;;;;;;;0.98;0.90;;;26.30;61.80;;;;;;5074831;28;20112;-79
2021/08/02 04:06:44;;;;;;;1.42;1.17;;;26.40;62.40;;;;;;5074322;28;20025;-79
2021/08/02 04:09:12;;;;;;;2.00;1.85;;;26.50;61.80;;;;;;5074282;28;20024;-79
2021/08/02 04:11:39;;;;;;;12.30;1.38;;;26.40;61.60;;;;;;5074331;28;20031;-80
2021/08/02 04:14:05;;;;;;;1.10;1.00;;;26.40;62.40;;;;;;5073923;28;20154;-80
2021/08/02 04:16:32;;;;;;;2.50;2.30;;;26.50;62.60;;;;;;5074237;28;20021;-79
2021/08/02 04:18:58;;;;;;;0.73;0.73;;;26.50;62.60;;;;;;5074215;28;20384;-80
2021/08/02 04:21:23;;;;;;;0.98;0.98;;;26.50;62.50;;;;;;5074392;28;20515;-80
2021/08/02 04:23:49;;;;;;;2.38;2.17;;;26.50;62.40;;;;;;5073833;28;20426;-79
2021/08/02 04:26:15;;;;;;;2.85;2.25;;;26.50;62.30;;;;;;5073949;28;20027;-79
2021/08/02 04:28:43;;;;;;;1.92;1.70;;;26.50;62.00;;;;;;5073833;28;20020;-79
2021/08/02 04:31:10;;;;;;;1.52;1.33;;;26.60;62.40;;;;;;5073993;28;20111;-80
2021/08/02 04:33:37;;;;;;;2.20;1.80;;;26.50;62.50;;;;;;5055495;28;20021;-79
2021/08/02 04:36:03;;;;;;;0.70;0.70;;;26.60;62.00;;;;;;5073787;28;20056;-80
2021/08/02 04:38:29;;;;;;;2.55;2.35;;;26.70;62.20;;;;;;5073575;28;20036;-78
2021/08/02 04:40:56;;;;;;;0.50;0.50;;;26.70;62.80;;;;;;5073631;28;20035;-80
2021/08/02 04:43:22;;;;;;;1.52;1.42;;;26.50;63.60;;;;;;5055597;28;20075;-77
2021/08/02 04:45:48;;;;;;;3.92;1.75;;;26.40;63.30;;;;;;5073525;28;20024;-79
2021/08/02 04:48:14;;;;;;;0.90;0.90;;;26.40;63.00;;;;;;5073409;28;20044;-79
2021/08/02 04:50:42;;;;;;;1.45;1.23;;;26.50;62.70;;;;;;5073560;28;20480;-79
2021/08/02 04:53:09;;;;;;;2.95;1.50;;;26.50;63.70;;;;;;5073154;28;20017;-79
2021/08/02 04:55:35;;;;;;;2.90;1.52;;;26.60;63.30;;;;;;5055235;28;20055;-80
2021/08/02 04:58:00;;;;;;;3.85;3.08;;;26.50;63.20;;;;;;5073490;28;20024;-80
2021/08/02 05:00:26;;;;;;;2.97;2.38;;;26.50;63.10;;;;;;5073119;28;20033;-79
2021/08/02 05:02:52;;;;;;;1.48;1.38;;;26.70;63.60;;;;;;5073354;28;20021;-80
2021/08/02 05:05:18;;;;;;;1.40;1.30;;;26.80;63.40;;;;;;5054999;28;20032;-80
2021/08/02 05:07:43;;;;;;;1.27;1.13;;;26.90;61.90;;;;;;5073280;28;20357;-79
2021/08/02 05:10:09;;;;;;;0.95;0.90;;;26.90;61.80;;;;;;5073028;28;20081;-78
2021/08/02 05:12:35;;;;;;;1.48;1.38;;;26.70;60.00;;;;;;5072897;28;20452;-79
2021/08/02 05:15:09;;;;;;;0.60;0.60;;;26.70;60.10;;;;;;5073063;28;20044;-80
2021/08/02 05:17:35;;;;;;;0.63;0.63;;;26.80;60.00;;;;;;5073140;28;20032;-80
2021/08/02 05:20:01;;;;;;;1.60;1.50;;;26.70;60.20;;;;;;5072703;28;20037;-80
2021/08/02 05:22:27;;;;;;;1.48;1.20;;;26.80;60.10;;;;;;5072747;28;20024;-80
2021/08/02 05:24:52;;;;;;;14.95;1.20;;;26.90;60.40;;;;;;5072807;28;20021;-80
2021/08/02 05:27:18;;;;;;;1.27;1.20;;;27.20;60.80;;;;;;5054790;28;20190;-79
2021/08/02 05:29:44;;;;;;;2.58;0.82;;;27.20;61.00;;;;;;5072805;28;20460;-77
2021/08/02 05:32:10;;;;;;;2.45;1.33;;;27.10;60.80;;;;;;5072685;28;20051;-79
2021/08/02 05:34:40;;;;;;;4.47;2.70;;;27.40;60.80;;;;;;5072502;28;20395;-80
2021/08/02 05:37:09;;;;;;;1.52;1.42;;;27.40;60.00;;;;;;5055000;28;20028;-79
2021/08/02 05:39:36;;;;;;;5.77;2.53;;;27.30;60.20;;;;;;5054532;28;20094;-79
2021/08/02 05:42:02;;;;;;;0.45;0.45;;;27.10;61.00;;;;;;5072371;28;20032;-79
2021/08/02 05:44:28;;;;;;;0.60;0.60;;;27.40;60.50;;;;;;5072494;28;20032;-79
2021/08/02 05:46:53;;;;;;;0.75;0.75;;;27.30;60.30;;;;;;5073103;28;20028;-80
2021/08/02 05:49:19;;;;;;;2.83;2.60;;;27.40;60.30;;;;;;5071935;28;20480;-78
2021/08/02 05:51:46;;;;;;;14.93;2.08;;;27.20;60.80;;;;;;5072428;28;20098;-80
2021/08/02 05:54:12;;;;;;;2.70;1.67;;;26.90;61.70;;;;;;5071898;28;20044;-80
2021/08/02 05:56:38;;;;;;;1.25;1.13;;;27.40;60.80;;;;;;5072158;28;20442;-80
2021/08/02 05:59:04;;;;;;;0.60;0.60;;;27.70;59.90;;;;;;5071937;28;20028;-78
2021/08/02 06:01:29;;;;;;;2.45;2.22;;;27.60;59.30;;;;;;5072200;28;20021;-79
2021/08/02 06:03:55;;;;;;;2.17;1.52;;;27.70;58.60;;;;;;5072195;28;20058;-80
2021/08/02 06:06:21;;;;;;;7.57;3.60;;;27.90;58.70;;;;;;5072173;28;20345;-79
2021/08/02 06:08:46;;;;;;;1.60;1.45;;;28.00;59.30;;;;;;5054129;28;20115;-81
2021/08/02 06:11:12;;;;;;;0.65;0.65;;;28.10;59.20;;;;;;5072017;28;20021;-80
2021/08/02 06:13:38;;;;;;;1.58;1.48;;;28.10;58.70;;;;;;5071403;28;20431;-79
2021/08/02 06:16:04;;;;;;;0.65;0.65;;;28.20;58.90;;;;;;5072074;28;20044;-79
2021/08/02 06:18:30;;;;;;;4.72;2.95;;;28.20;58.40;;;;;;5071332;28;20035;-81
2021/08/02 06:20:56;;;;;;;1.00;0.98;;;28.30;58.70;;;;;;5071653;28;20078;-78
2021/08/02 06:23:22;;;;;;;0.65;0.65;;;28.30;58.90;;;;;;5071672;28;20027;-80
2021/08/02 06:25:47;;;;;;;2.35;1.63;;;28.40;58.80;;;;;;5053924;28;20021;-81
2021/08/02 06:28:13;;;;;;;1.25;1.15;;;28.40;58.30;;;;;;5071588;28;20067;-80
2021/08/02 06:30:39;;;;;;;0.80;0.77;;;28.80;58.80;;;;;;5071653;28;20392;-81
2021/08/02 06:33:05;;;;;;;0.90;0.88;;;28.90;59.00;;;;;;5071844;28;20024;-81
2021/08/02 06:35:31;;;;;;;0.75;0.75;;;28.90;57.40;;;;;;5071867;28;20362;-79
2021/08/02 06:37:56;;;;;;;3.20;1.80;;;28.90;57.80;;;;;;5071543;28;20051;-80
2021/08/02 06:40:22;;;;;;;0.68;0.68;;;29.00;57.20;;;;;;5071443;28;20029;-81
2021/08/02 06:42:48;;;;;;;1.17;1.08;;;29.10;57.50;;;;;;5053803;28;20388;-79
2021/08/02 06:45:14;;;;;;;1.15;1.05;;;29.30;58.60;;;;;;5053216;28;20035;-77
2021/08/02 06:47:40;;;;;;;0.90;0.90;;;29.10;57.40;;;;;;5071279;28;20025;-79
2021/08/02 06:50:07;;;;;;;0.73;0.73;;;29.10;57.20;;;;;;5071447;28;20035;-80
2021/08/02 06:52:33;;;;;;;0.98;0.70;;;29.30;57.90;;;;;;5071297;28;20025;-80
2021/08/02 06:54:59;;;;;;;1.17;0.98;;;29.30;57.10;;;;;;5071316;28;20021;-78
2021/08/02 06:57:25;;;;;;;1.25;1.13;;;29.40;57.30;;;;;;5071194;28;20025;-81
2021/08/02 06:59:55;;;;;;;1.55;1.45;;;29.50;58.20;;;;;;5071153;28;20126;-81
2021/08/02 07:02:21;;;;;;;0.65;0.65;;;29.50;56.80;;;;;;5071436;28;20024;-80
2021/08/02 07:04:47;;;;;;;0.57;0.57;;;29.60;56.70;;;;;;5071314;28;20040;-81
2021/08/02 07:07:12;;;;;;;0.40;0.40;;;29.60;57.30;;;;;;5071582;28;20392;-80
2021/08/02 07:09:38;;;;;;;2.20;1.95;;;29.70;58.20;;;;;;5071252;28;20025;-80
2021/08/02 07:12:04;;;;;;;4.88;1.45;;;29.80;57.90;;;;;;5071642;28;20435;-80
2021/08/02 07:14:30;;;;;;;0.40;0.40;;;29.90;57.10;;;;;;5071091;28;20020;-81
2021/08/02 07:16:56;;;;;;;1.38;1.27;;;29.90;56.40;;;;;;5071180;28;20048;-79
2021/08/02 07:19:21;;;;;;;1.67;1.45;;;29.90;56.30;;;;;;5071755;28;20040;-81
2021/08/02 07:21:47;;;;;;;2.38;1.70;;;29.80;57.00;;;;;;5071540;28;20497;-80
2021/08/02 07:24:13;;;;;;;1.35;1.25;;;30.00;56.90;;;;;;5070788;28;20039;-80
2021/08/02 07:26:39;;;;;;;1.35;1.20;;;30.00;56.80;;;;;;5071259;28;20036;-79
2021/08/02 07:29:04;;;;;;;0.63;0.63;;;30.10;56.80;;;;;;5071219;28;20464;-81
2021/08/02 07:31:31;;;;;;;1.33;1.23;;;30.20;56.90;;;;;;5073142;28;20021;-78
2021/08/02 07:33:57;;;;;;;2.60;1.75;;;30.30;57.00;;;;;;5075319;28;20430;-79
2021/08/02 07:36:23;;;;;;;1.48;1.10;;;30.40;57.20;;;;;;5075066;28;20484;-79
2021/08/02 07:38:48;;;;;;;0.40;0.40;;;30.50;56.70;;;;;;5074504;28;20025;-82
2021/08/02 07:41:14;;;;;;;0.75;0.55;;;30.50;55.90;;;;;;5074878;28;20028;-81
2021/08/02 07:43:41;;;;;;;1.23;1.17;;;30.60;55.50;;;;;;5074387;28;20048;-80
2021/08/02 07:46:07;;;;;;;1.83;1.20;;;30.70;55.70;;;;;;5074853;28;20041;-79
2021/08/02 07:48:33;;;;;;;37.35;2.13;;;30.70;56.00;;;;;;5074338;28;20051;-79
2021/08/02 07:50:58;;;;;;;1.45;1.35;;;30.80;56.20;;;;;;5074807;28;20387;-80
2021/08/02 07:53:24;;;;;;;1.02;0.93;;;30.80;56.40;;;;;;5074183;28;20031;-80
2021/08/02 07:55:50;;;;;;;0.68;0.68;;;30.90;55.70;;;;;;5074783;28;20039;-78
2021/08/02 07:58:16;;;;;;;1.00;0.82;;;31.00;55.20;;;;;;5074287;28;20021;-80
2021/08/02 08:00:42;;;;;;;1.10;1.00;;;30.80;54.80;;;;;;5074425;28;20464;-79
2021/08/02 08:03:08;;;;;;;1.90;0.65;;;30.70;54.10;;;;;;5074029;28;20031;-78
2021/08/02 08:05:33;;;;;;;0.63;0.60;;;30.80;54.60;;;;;;5074434;28;20024;-79
2021/08/02 08:07:59;;;;;;;2.05;1.27;;;31.00;55.20;;;;;;5074701;28;20020;-80
2021/08/02 08:10:27;;;;;;;2.65;1.65;;;31.10;55.70;;;;;;5055931;28;20472;-80
2021/08/02 08:12:54;;;;;;;0.57;0.57;;;31.20;55.70;;;;;;5073852;28;20025;-80
2021/08/02 08:15:21;;;;;;;1.98;1.33;;;31.30;56.40;;;;;;5074059;28;20033;-80
2021/08/02 08:17:47;;;;;;;6.78;1.65;;;31.30;56.40;;;;;;5073988;28;20044;-81
2021/08/02 08:20:14;;;;;;;1.35;0.88;;;31.40;55.60;;;;;;5074177;28;20036;-80
2021/08/02 08:22:40;;;;;;;1.15;1.05;;;31.40;55.00;;;;;;5074416;28;20032;-80
2021/08/02 08:25:07;;;;;;;1.23;0.90;;;31.40;55.30;;;;;;5073536;28;20035;-81
2021/08/02 08:27:33;;;;;;;1.30;0.90;;;31.50;55.40;;;;;;5074136;28;20163;-79
2021/08/02 08:29:59;;;;;;;0.30;0.30;;;31.70;55.60;;;;;;5073865;28;20025;-80
2021/08/02 08:32:25;;;;;;;0.45;0.45;;;31.80;55.60;;;;;;5073819;28;20043;-80
2021/08/02 08:34:51;;;;;;;0.68;0.63;;;32.00;55.60;;;;;;5073577;28;20021;-80
2021/08/02 08:37:17;;;;;;;0.60;0.60;;;32.00;54.70;;;;;;5073911;28;20024;-79
2021/08/02 08:39:42;;;;;;;2.35;1.42;;;32.00;55.10;;;;;;5073273;28;20036;-80
2021/08/02 08:42:08;;;;;;;1.70;0.75;;;32.00;55.10;;;;;;5073322;28;20025;-80
2021/08/02 08:44:34;;;;;;;5.47;1.27;;;31.90;55.50;;;;;;5073369;28;20094;-80
2021/08/02 08:47:01;;;;;;;2.22;1.65;;;32.00;55.20;;;;;;5073664;28;20102;-80
2021/08/02 08:49:27;;;;;;;0.88;0.77;;;31.90;54.90;;;;;;5073550;28;20052;-79
2021/08/02 08:51:53;;;;;;;0.82;0.75;;;32.10;55.10;;;;;;5073783;28;20491;-80
2021/08/02 08:54:19;;;;;;;0.25;0.25;;;32.20;54.90;;;;;;5055209;28;20439;-79
2021/08/02 08:56:45;;;;;;;0.70;0.70;;;32.40;54.60;;;;;;5073523;28;20354;-80
2021/08/02 08:59:13;;;;;;;1.45;0.80;;;32.60;54.30;;;;;;5073597;28;20033;-80
2021/08/02 09:01:39;;;;;;;3.20;1.33;;;32.80;54.40;;;;;;5055349;28;20040;-80
2021/08/02 09:04:05;;;;;;;1.40;1.10;;;33.00;53.70;;;;;;5073537;28;20054;-80
2021/08/02 09:06:43;;;;;;;0.40;0.40;;;33.20;54.40;;;;;;5055322;28;20353;-79
2021/08/02 09:09:09;;;;;;;2.75;1.95;;;33.40;53.90;;;;;;5073400;28;20036;-79
2021/08/02 09:11:35;;;;;;;2.67;1.75;;;33.60;52.80;;;;;;5073132;28;20024;-80
2021/08/02 09:14:10;;;;;;;1.08;0.95;;;33.70;52.80;;;;;;5055117;28;20208;-80
2021/08/02 09:16:37;;;;;;;2.30;1.05;;;33.90;52.90;;;;;;5072726;28;20119;-79
2021/08/02 09:19:05;;;;;;;1.02;0.52;;;34.20;52.20;;;;;;5073417;28;20037;-80
2021/08/02 09:21:44;;;;;;;0.68;0.68;;;34.20;52.40;;;;;;5073319;28;20025;-82
2021/08/02 09:24:10;;;;;;;0.73;0.55;;;34.40;52.50;;;;;;5072502;28;20082;-81
2021/08/02 09:26:40;;;;;;;1.58;1.40;;;34.60;51.90;;;;;;5073137;28;20028;-81
2021/08/02 09:29:06;;;;;;;5.25;1.40;;;34.80;51.70;;;;;;5054861;28;20024;-81
2021/08/02 09:31:46;;;;;;;1.10;0.80;;;34.70;50.60;;;;;;5054884;28;20037;-80
2021/08/02 09:34:12;;;;;;;0.35;0.35;;;35.00;50.00;;;;;;5072858;28;20025;-79
2021/08/02 09:36:46;;;;;;;1.05;0.95;;;35.10;49.20;;;;;;5072909;28;20029;-80
2021/08/02 09:39:15;;;;;;;0.82;0.80;;;35.40;48.80;;;;;;5072540;28;20392;-80
2021/08/02 09:41:45;;;;;;;1.85;1.17;;;35.70;48.60;;;;;;5054766;28;20059;-80
2021/08/02 09:44:18;;;;;;;;;;;35.80;47.70;;;;;;5054649;28;20032;-81
2021/08/02 09:46:59;;;;;;;1.00;0.65;;;35.80;47.00;;;;;;5072357;28;19904;-79
2021/08/02 09:49:26;;;;;;;3.35;1.10;;;36.00;47.10;;;;;;5072036;28;20044;-82
2021/08/02 09:51:52;;;;;;;1.48;1.13;;;36.20;46.90;;;;;;5072211;28;20035;-79
2021/08/02 09:54:29;;;;;;;1.50;1.40;;;36.40;45.80;;;;;;5071532;28;20017;-80
2021/08/02 09:56:56;;;;;;;0.63;0.63;;;36.60;45.80;;;;;;5072345;28;20051;-80
2021/08/02 09:59:23;;;;;;;0.47;0.47;;;36.80;46.90;;;;;;5072035;28;20032;-79
2021/08/02 10:01:50;;;;;;;0.40;0.40;;;36.90;47.60;;;;;;5053924;28;20024;-80
2021/08/02 10:04:17;;;;;;;1.08;0.95;;;36.70;45.40;;;;;;5072593;28;20024;-81
2021/08/02 10:06:43;;;;;;;0.57;0.40;;;36.90;45.20;;;;;;5072119;28;20060;-81
2021/08/02 10:09:13;;;;;;;0.40;0.40;;;37.00;44.90;;;;;;5054006;28;20431;-81
2021/08/02 10:11:40;;;;;;;1.23;0.95;;;37.20;45.30;;;;;;5071801;28;20028;-81
2021/08/02 10:14:07;;;;;;;0.75;0.75;;;37.40;44.60;;;;;;5071882;28;20097;-80
2021/08/02 10:16:35;;;;;;;0.65;0.35;;;37.40;43.80;;;;;;5071735;28;20059;-80
2021/08/02 10:19:03;;;;;;;1.75;1.50;;;37.40;43.60;;;;;;5071574;28;20105;-80
2021/08/02 10:21:41;;;;;;;8.85;2.15;;;37.50;44.00;;;;;;5071667;28;20020;-81
2021/08/02 10:24:11;;;;;;;2.83;1.80;;;37.80;43.80;;;;;;5071597;28;20176;-82
2021/08/02 10:26:38;;;;;;;2.08;1.65;;;38.00;43.40;;;;;;5054208;28;20032;-80
2021/08/02 10:29:07;;;;;;;2.72;1.45;;;38.00;43.50;;;;;;5072033;28;20024;-78
2021/08/02 10:31:46;;;;;;;1.10;0.52;;;38.10;44.10;;;;;;5071710;28;20020;-80
2021/08/02 10:34:13;;;;;;;;;;;38.30;43.80;;;;;;5072647;28;20032;-82
2021/08/02 10:36:39;;;;;;;0.20;0.20;;;38.60;44.10;;;;;;5071558;28;19916;-80
2021/08/02 10:39:05;;;;;;;2.17;1.05;;;38.30;42.90;;;;;;5071500;28;20032;-80
2021/08/02 10:41:32;;;;;;;0.63;0.60;;;38.40;42.80;;;;;;5071690;28;20021;-78
2021/08/02 10:44:13;;;;;;;1.35;0.98;;;38.40;42.50;;;;;;5071241;28;20025;-79
2021/08/02 10:46:38;;;;;;;0.38;0.38;;;38.30;42.10;;;;;;5071827;28;20029;-81
2021/08/02 10:49:16;;;;;;;2.35;1.73;;;38.10;41.50;;;;;;5053558;28;20105;-81
2021/08/02 10:51:48;;;;;;;0.47;0.47;;;38.10;41.30;;;;;;5071917;28;20384;-79
2021/08/02 10:54:16;;;;;;;1.75;0.60;;;38.40;41.00;;;;;;5071515;28;20063;-78
2021/08/02 10:56:42;;;;;;;1.55;1.25;;;38.30;41.00;;;;;;5071301;28;20445;-80
2021/08/02 10:59:08;;;;;;;6.32;1.90;;;38.60;41.00;;;;;;5071327;28;20399;-80
2021/08/02 11:01:44;;;;;;;1.80;1.70;;;38.70;40.50;;;;;;5071535;28;20518;-80
2021/08/02 11:04:11;;;;;;;1.27;1.10;;;38.40;37.80;;;;;;5071616;28;20107;-80
2021/08/02 11:06:37;;;;;;;0.70;0.60;;;38.50;36.50;;;;;;5075701;28;20502;-81
2021/08/02 11:09:03;;;;;;;2.30;0.63;;;38.10;36.10;;;;;;5075554;28;20028;-81
2021/08/02 11:11:31;;;;;;;1.63;0.50;;;38.50;36.70;;;;;;5057226;28;20115;-79
2021/08/02 11:14:12;;;;;;;3.33;1.85;;;38.30;35.60;;;;;;5075310;28;20024;-79
2021/08/02 11:16:44;;;;;;;2.78;1.73;;;38.20;35.00;;;;;;5075059;28;20027;-80
2021/08/02 11:19:26;;;;;;;4.00;2.50;;;38.50;35.90;;;;;;5057176;28;20086;-81
2021/08/02 11:21:58;;;;;;;1.17;1.08;;;38.50;35.80;;;;;;5074989;28;20027;-80
2021/08/02 11:24:24;;;;;;;0.43;0.40;;;38.50;35.70;;;;;;5056603;28;20024;-80
2021/08/02 11:27:01;;;;;;;4.88;2.95;;;38.30;35.10;;;;;;5075012;28;20103;-80
2021/08/02 11:29:28;;;;;;;5.60;1.83;;;38.60;35.80;;;;;;5074962;28;20028;-79
2021/08/02 11:32:21;;;;;;;2.63;1.65;;;38.50;35.20;;;;;;5075057;28;20024;-80
2021/08/02 11:35:01;;;;;;;9.98;3.28;;;38.70;35.60;;;;;;5055014;28;20526;-80
2021/08/02 11:37:28;;;;;;;0.30;0.30;;;38.60;35.10;;;;;;5057123;28;20573;-81
2021/08/02 11:40:06;;;;;;;1.17;0.90;;;38.60;35.20;;;;;;5074604;28;20035;-79
2021/08/02 11:42:33;;;;;;;1.55;1.38;;;38.40;34.60;;;;;;5074931;28;20021;-79
2021/08/02 11:45:04;;;;;;;1.98;1.58;;;38.70;35.30;;;;;;5074517;28;20017;-81
2021/08/02 11:47:35;;;;;;;5.32;2.60;;;38.20;34.70;;;;;;5074624;28;20020;-81
2021/08/02 11:50:03;;;;;;;2.47;1.10;;;38.50;35.20;;;;;;5074475;28;20126;-80
2021/08/02 11:52:29;;;;;;;8.82;2.30;;;38.70;35.40;;;;;;5074069;28;20027;-79
2021/08/02 11:55:00;;;;;;;1.58;1.48;;;38.80;35.40;;;;;;5074315;28;20040;-79
2021/08/02 11:57:26;;;;;;;0.68;0.60;;;38.60;35.50;;;;;;5074390;28;20032;-80
2021/08/02 12:00:16;;;;;;;1.65;1.55;;;38.10;35.30;;;;;;5074070;28;20071;-80
2021/08/02 12:02:44;;;;;;;4.60;1.88;;;38.60;35.30;;;;;;5074369;28;20208;-80
2021/08/02 12:05:22;;;;;;;0.90;0.82;;;38.80;35.60;;;;;;5074137;28;20032;-79
2021/08/02 12:07:48;;;;;;;17.52;2.45;;;39.00;35.40;;;;;;5074555;28;20489;-80
2021/08/02 12:10:19;;;;;;;2.65;1.98;;;39.10;35.40;;;;;;5074091;28;20025;-80
2021/08/02 12:13:06;;;;;;;0.38;0.38;;;38.90;35.40;;;;;;5056271;28;20058;-80
2021/08/02 12:15:33;;;;;;;0.30;0.30;;;38.70;35.10;;;;;;5073824;28;20033;-80
2021/08/02 12:17:59;;;;;;;0.88;0.75;;;38.60;35.20;;;;;;5073620;28;20341;-79
2021/08/02 12:20:34;;;;;;;0.73;0.73;;;38.40;35.10;;;;;;5074002;28;20059;-80
2021/08/02 12:23:01;;;;;;;6.55;3.50;;;38.90;35.50;;;;;;5074255;28;20017;-80
2021/08/02 12:25:42;;;;;;;1.20;1.10;;;38.70;35.00;;;;;;5055843;28;20029;-80
2021/08/02 12:28:08;;;;;;;2.08;1.45;;;38.70;35.60;;;;;;5073920;28;20013;-80
2021/08/02 12:30:39;;;;;;;2.13;1.50;;;38.80;35.30;;;;;;5055965;28;20029;-79
2021/08/02 12:33:06;;;;;;;1.50;1.40;;;38.70;35.20;;;;;;5073894;28;20422;-79
2021/08/02 12:35:32;;;;;;;0.38;0.35;;;39.00;35.60;;;;;;5073917;28;20036;-79
2021/08/02 12:38:02;;;;;;;7.35;1.23;;;39.10;35.40;;;;;;5073899;28;20021;-79
2021/08/02 12:40:29;;;;;;;1.75;0.85;;;39.10;35.90;;;;;;5073636;28;20059;-80
2021/08/02 12:42:55;;;;;;;3.17;1.83;;;39.10;35.60;;;;;;5073285;28;20095;-79
2021/08/02 12:45:20;;;;;;;6.20;1.10;;;39.10;35.60;;;;;;5073455;28;20123;-83
2021/08/02 12:47:48;;;;;;;0.30;0.30;;;38.80;35.20;;;;;;5073468;28;20063;-78
2021/08/02 12:50:15;;;;;;;2.65;1.65;;;38.90;35.60;;;;;;5073304;28;20495;-80
2021/08/02 12:52:42;;;;;;;0.20;0.20;;;39.10;35.60;;;;;;5073827;28;20032;-79
2021/08/02 12:55:09;;;;;;;2.28;1.00;;;38.80;35.60;;;;;;5073028;28;20123;-79